sensor_id;sensor_type;location;lat;lon;timestamp;temperature;humidity
51855;DHT22;37895;53.240;6.572;2023-04-06T00:01:21;4.80;76.50
51855;DHT22;37895;53.240;6.572;2023-04-06T00:03:47;4.70;77.00
51855;DHT22;37895;53.240;6.572;2023-04-06T00:06:13;4.70;77.30
51855;DHT22;37895;53.240;6.572;2023-04-06T00:08:38;4.60;77.40
51855;DHT22;37895;53.240;6.572;2023-04-06T00:11:04;4.60;77.70
51855;DHT22;37895;53.240;6.572;2023-04-06T00:13:30;4.50;77.90
51855;DHT22;37895;53.240;6.572;2023-04-06T00:15:56;4.40;78.30
51855;DHT22;37895;53.240;6.572;2023-04-06T00:18:22;4.40;78.60
51855;DHT22;37895;53.240;6.572;2023-04-06T00:20:48;4.40;78.90
51855;DHT22;37895;53.240;6.572;2023-04-06T00:23:13;4.40;78.90
51855;DHT22;37895;53.240;6.572;2023-04-06T00:25:39;4.30;79.10
51855;DHT22;37895;53.240;6.572;2023-04-06T00:28:05;4.30;79.20
51855;DHT22;37895;53.240;6.572;2023-04-06T00:30:30;4.20;79.30
51855;DHT22;37895;53.240;6.572;2023-04-06T00:32:56;4.20;79.60
51855;DHT22;37895;53.240;6.572;2023-04-06T00:35:22;4.20;79.80
51855;DHT22;37895;53.240;6.572;2023-04-06T00:37:47;4.20;79.80
51855;DHT22;37895;53.240;6.572;2023-04-06T00:40:13;4.10;79.90
51855;DHT22;37895;53.240;6.572;2023-04-06T00:42:40;4.10;80.30
51855;DHT22;37895;53.240;6.572;2023-04-06T00:45:06;4.10;80.40
51855;DHT22;37895;53.240;6.572;2023-04-06T00:47:33;4.10;80.40
51855;DHT22;37895;53.240;6.572;2023-04-06T00:49:58;4.10;80.60
51855;DHT22;37895;53.240;6.572;2023-04-06T00:52:24;4.00;80.90
51855;DHT22;37895;53.240;6.572;2023-04-06T00:54:50;4.00;80.30
51855;DHT22;37895;53.240;6.572;2023-04-06T00:57:17;4.00;80.70
51855;DHT22;37895;53.240;6.572;2023-04-06T00:59:42;4.00;81.00
51855;DHT22;37895;53.240;6.572;2023-04-06T01:02:08;4.10;81.70
51855;DHT22;37895;53.240;6.572;2023-04-06T01:04:34;4.10;80.90
51855;DHT22;37895;53.240;6.572;2023-04-06T01:07:00;4.00;81.20
51855;DHT22;37895;53.240;6.572;2023-04-06T01:09:28;4.10;81.40
51855;DHT22;37895;53.240;6.572;2023-04-06T01:11:55;4.00;81.40
51855;DHT22;37895;53.240;6.572;2023-04-06T01:14:21;4.00;81.60
51855;DHT22;37895;53.240;6.572;2023-04-06T01:16:47;3.90;81.80
51855;DHT22;37895;53.240;6.572;2023-04-06T01:19:13;3.90;82.10
51855;DHT22;37895;53.240;6.572;2023-04-06T01:21:40;3.90;81.70
51855;DHT22;37895;53.240;6.572;2023-04-06T01:24:06;3.90;82.50
51855;DHT22;37895;53.240;6.572;2023-04-06T01:26:33;3.90;82.10
51855;DHT22;37895;53.240;6.572;2023-04-06T01:28:59;3.80;81.90
51855;DHT22;37895;53.240;6.572;2023-04-06T01:31:25;3.80;81.80
51855;DHT22;37895;53.240;6.572;2023-04-06T01:33:51;3.80;81.80
51855;DHT22;37895;53.240;6.572;2023-04-06T01:36:17;3.80;82.10
51855;DHT22;37895;53.240;6.572;2023-04-06T01:38:43;3.70;81.80
51855;DHT22;37895;53.240;6.572;2023-04-06T01:41:09;3.70;82.20
51855;DHT22;37895;53.240;6.572;2023-04-06T01:43:35;3.70;82.50
51855;DHT22;37895;53.240;6.572;2023-04-06T01:46:00;3.70;82.70
51855;DHT22;37895;53.240;6.572;2023-04-06T01:48:27;3.70;82.80
51855;DHT22;37895;53.240;6.572;2023-04-06T01:50:53;3.60;82.90
51855;DHT22;37895;53.240;6.572;2023-04-06T01:53:19;3.60;83.20
51855;DHT22;37895;53.240;6.572;2023-04-06T01:55:45;3.60;82.70
51855;DHT22;37895;53.240;6.572;2023-04-06T01:58:10;3.60;82.90
51855;DHT22;37895;53.240;6.572;2023-04-06T02:00:36;3.50;82.90
51855;DHT22;37895;53.240;6.572;2023-04-06T02:03:02;3.40;83.10
51855;DHT22;37895;53.240;6.572;2023-04-06T02:05:30;3.40;83.30
51855;DHT22;37895;53.240;6.572;2023-04-06T02:07:56;3.30;83.40
51855;DHT22;37895;53.240;6.572;2023-04-06T02:10:22;3.30;83.70
51855;DHT22;37895;53.240;6.572;2023-04-06T02:12:48;3.30;83.80
51855;DHT22;37895;53.240;6.572;2023-04-06T02:15:14;3.30;84.00
51855;DHT22;37895;53.240;6.572;2023-04-06T02:17:40;3.30;84.00
51855;DHT22;37895;53.240;6.572;2023-04-06T02:20:07;3.30;83.90
51855;DHT22;37895;53.240;6.572;2023-04-06T02:22:34;3.30;84.10
51855;DHT22;37895;53.240;6.572;2023-04-06T02:25:00;3.30;84.00
51855;DHT22;37895;53.240;6.572;2023-04-06T02:27:26;3.20;84.10
51855;DHT22;37895;53.240;6.572;2023-04-06T02:29:52;3.20;84.30
51855;DHT22;37895;53.240;6.572;2023-04-06T02:32:18;3.80;84.80
51855;DHT22;37895;53.240;6.572;2023-04-06T02:34:43;3.20;84.60
51855;DHT22;37895;53.240;6.572;2023-04-06T02:37:09;3.10;84.50
51855;DHT22;37895;53.240;6.572;2023-04-06T02:39:35;3.10;84.70
51855;DHT22;37895;53.240;6.572;2023-04-06T02:42:01;3.60;84.90
51855;DHT22;37895;53.240;6.572;2023-04-06T02:44:26;3.10;84.50
51855;DHT22;37895;53.240;6.572;2023-04-06T02:46:52;3.00;84.70
51855;DHT22;37895;53.240;6.572;2023-04-06T02:49:18;3.10;84.90
51855;DHT22;37895;53.240;6.572;2023-04-06T02:51:43;3.10;84.70
51855;DHT22;37895;53.240;6.572;2023-04-06T02:54:09;3.10;84.60
51855;DHT22;37895;53.240;6.572;2023-04-06T02:56:34;3.10;84.50
51855;DHT22;37895;53.240;6.572;2023-04-06T02:59:00;3.10;84.30
51855;DHT22;37895;53.240;6.572;2023-04-06T03:01:26;3.00;84.40
51855;DHT22;37895;53.240;6.572;2023-04-06T03:03:52;3.00;84.60
51855;DHT22;37895;53.240;6.572;2023-04-06T03:06:17;3.00;84.50
51855;DHT22;37895;53.240;6.572;2023-04-06T03:08:43;3.10;84.50
51855;DHT22;37895;53.240;6.572;2023-04-06T03:11:08;3.00;84.40
51855;DHT22;37895;53.240;6.572;2023-04-06T03:13:35;3.00;84.50
51855;DHT22;37895;53.240;6.572;2023-04-06T03:16:01;3.40;84.90
51855;DHT22;37895;53.240;6.572;2023-04-06T03:18:27;3.00;84.40
51855;DHT22;37895;53.240;6.572;2023-04-06T03:20:52;3.00;84.30
51855;DHT22;37895;53.240;6.572;2023-04-06T03:23:21;3.20;84.30
51855;DHT22;37895;53.240;6.572;2023-04-06T03:25:46;2.90;84.50
51855;DHT22;37895;53.240;6.572;2023-04-06T03:28:12;2.90;84.40
51855;DHT22;37895;53.240;6.572;2023-04-06T03:30:38;2.90;84.40
51855;DHT22;37895;53.240;6.572;2023-04-06T03:33:03;2.80;84.40
51855;DHT22;37895;53.240;6.572;2023-04-06T03:35:29;2.80;84.50
51855;DHT22;37895;53.240;6.572;2023-04-06T03:37:55;2.80;84.70
51855;DHT22;37895;53.240;6.572;2023-04-06T03:40:20;2.80;84.40
51855;DHT22;37895;53.240;6.572;2023-04-06T03:42:46;2.80;84.30
51855;DHT22;37895;53.240;6.572;2023-04-06T03:45:12;2.80;84.50
51855;DHT22;37895;53.240;6.572;2023-04-06T03:47:40;2.80;84.60
51855;DHT22;37895;53.240;6.572;2023-04-06T03:50:06;2.70;84.60
51855;DHT22;37895;53.240;6.572;2023-04-06T03:52:32;2.70;84.50
51855;DHT22;37895;53.240;6.572;2023-04-06T03:54:57;2.70;84.30
51855;DHT22;37895;53.240;6.572;2023-04-06T03:57:23;3.30;84.90
51855;DHT22;37895;53.240;6.572;2023-04-06T03:59:49;2.60;84.60
51855;DHT22;37895;53.240;6.572;2023-04-06T04:02:15;2.60;84.60
51855;DHT22;37895;53.240;6.572;2023-04-06T04:04:40;2.50;84.40
51855;DHT22;37895;53.240;6.572;2023-04-06T04:07:06;2.50;84.40
51855;DHT22;37895;53.240;6.572;2023-04-06T04:09:32;2.60;84.40
51855;DHT22;37895;53.240;6.572;2023-04-06T04:11:57;2.50;84.30
51855;DHT22;37895;53.240;6.572;2023-04-06T04:14:23;2.70;84.50
51855;DHT22;37895;53.240;6.572;2023-04-06T04:16:49;2.90;84.50
51855;DHT22;37895;53.240;6.572;2023-04-06T04:19:14;2.60;84.00
51855;DHT22;37895;53.240;6.572;2023-04-06T04:21:44;2.60;84.00
51855;DHT22;37895;53.240;6.572;2023-04-06T04:24:10;2.60;83.80
51855;DHT22;37895;53.240;6.572;2023-04-06T04:26:37;2.60;83.70
51855;DHT22;37895;53.240;6.572;2023-04-06T04:29:03;2.60;83.90
51855;DHT22;37895;53.240;6.572;2023-04-06T04:31:29;2.60;83.80
51855;DHT22;37895;53.240;6.572;2023-04-06T04:33:55;2.70;83.70
51855;DHT22;37895;53.240;6.572;2023-04-06T04:36:20;2.60;83.50
51855;DHT22;37895;53.240;6.572;2023-04-06T04:38:46;2.70;83.50
51855;DHT22;37895;53.240;6.572;2023-04-06T04:41:12;2.60;83.50
51855;DHT22;37895;53.240;6.572;2023-04-06T04:43:37;2.60;84.40
51855;DHT22;37895;53.240;6.572;2023-04-06T04:46:04;2.60;83.80
51855;DHT22;37895;53.240;6.572;2023-04-06T04:48:30;2.60;83.70
51855;DHT22;37895;53.240;6.572;2023-04-06T04:50:55;2.50;83.70
51855;DHT22;37895;53.240;6.572;2023-04-06T04:53:21;2.50;83.70
51855;DHT22;37895;53.240;6.572;2023-04-06T04:55:47;2.50;83.70
51855;DHT22;37895;53.240;6.572;2023-04-06T04:58:13;2.50;83.70
51855;DHT22;37895;53.240;6.572;2023-04-06T05:00:42;2.50;83.60
51855;DHT22;37895;53.240;6.572;2023-04-06T05:03:09;2.60;83.70
51855;DHT22;37895;53.240;6.572;2023-04-06T05:05:39;2.50;83.30
51855;DHT22;37895;53.240;6.572;2023-04-06T05:08:04;2.50;83.50
51855;DHT22;37895;53.240;6.572;2023-04-06T05:10:30;2.50;83.30
51855;DHT22;37895;53.240;6.572;2023-04-06T05:12:56;2.50;83.40
51855;DHT22;37895;53.240;6.572;2023-04-06T05:15:22;2.40;83.70
51855;DHT22;37895;53.240;6.572;2023-04-06T05:17:48;2.40;83.70
51855;DHT22;37895;53.240;6.572;2023-04-06T05:20:13;2.40;83.70
51855;DHT22;37895;53.240;6.572;2023-04-06T05:22:39;2.40;83.70
51855;DHT22;37895;53.240;6.572;2023-04-06T05:25:05;2.40;83.60
51855;DHT22;37895;53.240;6.572;2023-04-06T05:27:31;2.40;83.60
51855;DHT22;37895;53.240;6.572;2023-04-06T05:29:57;2.40;83.70
51855;DHT22;37895;53.240;6.572;2023-04-06T05:32:22;2.40;83.70
51855;DHT22;37895;53.240;6.572;2023-04-06T05:34:50;2.40;83.60
51855;DHT22;37895;53.240;6.572;2023-04-06T05:37:16;2.40;83.20
51855;DHT22;37895;53.240;6.572;2023-04-06T05:39:41;2.50;83.10
51855;DHT22;37895;53.240;6.572;2023-04-06T05:42:07;2.50;82.90
51855;DHT22;37895;53.240;6.572;2023-04-06T05:44:33;2.50;83.00
51855;DHT22;37895;53.240;6.572;2023-04-06T05:46:58;2.50;83.00
51855;DHT22;37895;53.240;6.572;2023-04-06T05:49:24;2.50;83.50
51855;DHT22;37895;53.240;6.572;2023-04-06T05:51:50;2.60;82.90
51855;DHT22;37895;53.240;6.572;2023-04-06T05:54:16;2.60;82.80
51855;DHT22;37895;53.240;6.572;2023-04-06T05:56:45;2.60;82.80
51855;DHT22;37895;53.240;6.572;2023-04-06T05:59:10;2.70;82.40
51855;DHT22;37895;53.240;6.572;2023-04-06T06:01:36;2.70;82.30
51855;DHT22;37895;53.240;6.572;2023-04-06T06:04:02;2.70;82.10
51855;DHT22;37895;53.240;6.572;2023-04-06T06:06:28;2.80;82.00
51855;DHT22;37895;53.240;6.572;2023-04-06T06:08:56;2.80;81.80
51855;DHT22;37895;53.240;6.572;2023-04-06T06:11:24;2.80;81.90
51855;DHT22;37895;53.240;6.572;2023-04-06T06:13:50;2.90;82.00
51855;DHT22;37895;53.240;6.572;2023-04-06T06:16:17;2.90;81.70
51855;DHT22;37895;53.240;6.572;2023-04-06T06:18:44;3.00;81.40
51855;DHT22;37895;53.240;6.572;2023-04-06T06:21:10;3.00;81.40
51855;DHT22;37895;53.240;6.572;2023-04-06T06:23:38;3.10;81.20
51855;DHT22;37895;53.240;6.572;2023-04-06T06:26:03;3.10;81.00
51855;DHT22;37895;53.240;6.572;2023-04-06T06:28:30;3.10;80.90
51855;DHT22;37895;53.240;6.572;2023-04-06T06:30:55;3.20;80.70
51855;DHT22;37895;53.240;6.572;2023-04-06T06:33:21;3.20;80.50
51855;DHT22;37895;53.240;6.572;2023-04-06T06:35:47;3.40;80.30
51855;DHT22;37895;53.240;6.572;2023-04-06T06:38:12;3.30;80.20
51855;DHT22;37895;53.240;6.572;2023-04-06T06:40:39;3.30;80.30
51855;DHT22;37895;53.240;6.572;2023-04-06T06:43:05;3.40;80.10
51855;DHT22;37895;53.240;6.572;2023-04-06T06:45:31;3.50;79.70
51855;DHT22;37895;53.240;6.572;2023-04-06T06:47:56;3.50;79.60
51855;DHT22;37895;53.240;6.572;2023-04-06T06:50:22;3.60;79.40
51855;DHT22;37895;53.240;6.572;2023-04-06T06:52:48;3.60;79.30
51855;DHT22;37895;53.240;6.572;2023-04-06T06:55:13;3.70;79.30
51855;DHT22;37895;53.240;6.572;2023-04-06T06:57:40;3.70;79.10
51855;DHT22;37895;53.240;6.572;2023-04-06T07:00:08;3.70;79.10
51855;DHT22;37895;53.240;6.572;2023-04-06T07:02:35;3.80;79.00
51855;DHT22;37895;53.240;6.572;2023-04-06T07:05:01;3.80;78.80
51855;DHT22;37895;53.240;6.572;2023-04-06T07:07:27;3.90;78.70
51855;DHT22;37895;53.240;6.572;2023-04-06T07:09:53;4.00;78.60
51855;DHT22;37895;53.240;6.572;2023-04-06T07:12:18;4.00;78.60
51855;DHT22;37895;53.240;6.572;2023-04-06T07:14:44;4.10;78.50
51855;DHT22;37895;53.240;6.572;2023-04-06T07:17:10;4.10;78.40
51855;DHT22;37895;53.240;6.572;2023-04-06T07:19:36;4.00;78.20
51855;DHT22;37895;53.240;6.572;2023-04-06T07:22:02;4.20;78.20
51855;DHT22;37895;53.240;6.572;2023-04-06T07:24:28;4.30;78.30
51855;DHT22;37895;53.240;6.572;2023-04-06T07:26:54;4.30;78.30
51855;DHT22;37895;53.240;6.572;2023-04-06T07:29:21;4.40;78.20
51855;DHT22;37895;53.240;6.572;2023-04-06T07:31:46;4.40;77.20
51855;DHT22;37895;53.240;6.572;2023-04-06T07:34:12;4.60;75.90
51855;DHT22;37895;53.240;6.572;2023-04-06T07:36:38;4.70;75.20
51855;DHT22;37895;53.240;6.572;2023-04-06T07:39:03;4.70;74.90
51855;DHT22;37895;53.240;6.572;2023-04-06T07:41:29;4.80;74.80
51855;DHT22;37895;53.240;6.572;2023-04-06T07:43:54;4.90;75.20
51855;DHT22;37895;53.240;6.572;2023-04-06T07:46:21;5.00;75.00
51855;DHT22;37895;53.240;6.572;2023-04-06T07:48:46;5.10;75.10
51855;DHT22;37895;53.240;6.572;2023-04-06T07:51:12;5.10;74.80
51855;DHT22;37895;53.240;6.572;2023-04-06T07:53:40;5.20;74.80
51855;DHT22;37895;53.240;6.572;2023-04-06T07:56:05;5.20;74.90
51855;DHT22;37895;53.240;6.572;2023-04-06T07:58:31;5.30;75.00
51855;DHT22;37895;53.240;6.572;2023-04-06T08:00:57;5.30;74.60
51855;DHT22;37895;53.240;6.572;2023-04-06T08:03:23;5.40;74.10
51855;DHT22;37895;53.240;6.572;2023-04-06T08:05:54;5.50;73.50
51855;DHT22;37895;53.240;6.572;2023-04-06T08:08:20;5.60;73.00
51855;DHT22;37895;53.240;6.572;2023-04-06T08:10:47;5.70;73.10
51855;DHT22;37895;53.240;6.572;2023-04-06T08:13:14;5.70;72.90
51855;DHT22;37895;53.240;6.572;2023-04-06T08:15:40;5.80;72.60
51855;DHT22;37895;53.240;6.572;2023-04-06T08:18:05;6.00;72.30
51855;DHT22;37895;53.240;6.572;2023-04-06T08:20:31;6.00;71.90
51855;DHT22;37895;53.240;6.572;2023-04-06T08:22:57;6.10;71.40
51855;DHT22;37895;53.240;6.572;2023-04-06T08:25:22;6.20;70.80
51855;DHT22;37895;53.240;6.572;2023-04-06T08:27:48;6.30;70.60
51855;DHT22;37895;53.240;6.572;2023-04-06T08:30:14;6.40;70.10
51855;DHT22;37895;53.240;6.572;2023-04-06T08:32:41;6.40;69.80
51855;DHT22;37895;53.240;6.572;2023-04-06T08:35:07;6.50;69.20
51855;DHT22;37895;53.240;6.572;2023-04-06T08:37:33;6.60;68.90
51855;DHT22;37895;53.240;6.572;2023-04-06T08:39:59;6.70;68.30
51855;DHT22;37895;53.240;6.572;2023-04-06T08:42:25;6.80;68.30
51855;DHT22;37895;53.240;6.572;2023-04-06T08:44:52;6.80;68.00
51855;DHT22;37895;53.240;6.572;2023-04-06T08:47:18;6.70;68.00
51855;DHT22;37895;53.240;6.572;2023-04-06T08:49:44;7.00;68.60
51855;DHT22;37895;53.240;6.572;2023-04-06T08:52:11;7.00;68.70
51855;DHT22;37895;53.240;6.572;2023-04-06T08:54:37;7.20;67.20
51855;DHT22;37895;53.240;6.572;2023-04-06T08:57:03;7.40;65.80
51855;DHT22;37895;53.240;6.572;2023-04-06T08:59:31;7.50;65.60
51855;DHT22;37895;53.240;6.572;2023-04-06T09:01:57;7.60;64.80
51855;DHT22;37895;53.240;6.572;2023-04-06T09:04:23;7.80;64.20
51855;DHT22;37895;53.240;6.572;2023-04-06T09:06:48;8.00;63.40
51855;DHT22;37895;53.240;6.572;2023-04-06T09:09:15;8.00;62.90
51855;DHT22;37895;53.240;6.572;2023-04-06T09:11:49;8.20;61.90
51855;DHT22;37895;53.240;6.572;2023-04-06T09:14:16;8.40;62.40
51855;DHT22;37895;53.240;6.572;2023-04-06T09:16:44;8.70;61.60
51855;DHT22;37895;53.240;6.572;2023-04-06T09:19:11;8.80;59.30
51855;DHT22;37895;53.240;6.572;2023-04-06T09:21:37;8.90;59.20
51855;DHT22;37895;53.240;6.572;2023-04-06T09:24:06;9.00;59.80
51855;DHT22;37895;53.240;6.572;2023-04-06T09:26:32;9.10;58.40
51855;DHT22;37895;53.240;6.572;2023-04-06T09:28:59;9.20;58.90
51855;DHT22;37895;53.240;6.572;2023-04-06T09:31:30;9.40;59.30
51855;DHT22;37895;53.240;6.572;2023-04-06T09:33:58;9.60;59.30
51855;DHT22;37895;53.240;6.572;2023-04-06T09:36:35;9.80;56.00
51855;DHT22;37895;53.240;6.572;2023-04-06T09:39:03;10.10;54.40
51855;DHT22;37895;53.240;6.572;2023-04-06T09:41:34;10.20;54.10
51855;DHT22;37895;53.240;6.572;2023-04-06T09:44:04;10.20;54.00
51855;DHT22;37895;53.240;6.572;2023-04-06T09:46:35;10.30;54.30
51855;DHT22;37895;53.240;6.572;2023-04-06T09:49:02;10.50;54.10
51855;DHT22;37895;53.240;6.572;2023-04-06T09:52:16;10.70;52.40
51855;DHT22;37895;53.240;6.572;2023-04-06T09:54:19;10.60;53.60
51855;DHT22;37895;53.240;6.572;2023-04-06T09:56:47;10.70;52.60
51855;DHT22;37895;53.240;6.572;2023-04-06T09:59:18;10.80;51.60
51855;DHT22;37895;53.240;6.572;2023-04-06T10:01:48;10.90;51.30
51855;DHT22;37895;53.240;6.572;2023-04-06T10:04:43;10.80;52.10
51855;DHT22;37895;53.240;6.572;2023-04-06T10:07:10;10.90;51.90
51855;DHT22;37895;53.240;6.572;2023-04-06T10:09:42;10.90;51.70
51855;DHT22;37895;53.240;6.572;2023-04-06T10:12:09;11.00;52.30
51855;DHT22;37895;53.240;6.572;2023-04-06T10:14:35;10.90;53.00
51855;DHT22;37895;53.240;6.572;2023-04-06T10:17:03;10.90;52.90
51855;DHT22;37895;53.240;6.572;2023-04-06T10:19:44;10.90;53.40
51855;DHT22;37895;53.240;6.572;2023-04-06T10:22:21;11.20;52.90
51855;DHT22;37895;53.240;6.572;2023-04-06T10:24:49;11.10;53.20
51855;DHT22;37895;53.240;6.572;2023-04-06T10:27:15;11.10;53.10
51855;DHT22;37895;53.240;6.572;2023-04-06T10:29:45;11.20;52.80
51855;DHT22;37895;53.240;6.572;2023-04-06T10:32:12;11.20;52.80
51855;DHT22;37895;53.240;6.572;2023-04-06T10:34:38;11.20;53.20
51855;DHT22;37895;53.240;6.572;2023-04-06T10:37:16;11.30;54.10
51855;DHT22;37895;53.240;6.572;2023-04-06T10:39:53;11.50;52.90
51855;DHT22;37895;53.240;6.572;2023-04-06T10:42:37;11.60;52.50
51855;DHT22;37895;53.240;6.572;2023-04-06T10:45:06;11.70;51.70
51855;DHT22;37895;53.240;6.572;2023-04-06T10:47:39;11.80;51.00
51855;DHT22;37895;53.240;6.572;2023-04-06T10:50:05;11.90;51.40
51855;DHT22;37895;53.240;6.572;2023-04-06T10:52:31;12.00;51.10
51855;DHT22;37895;53.240;6.572;2023-04-06T10:54:57;12.10;50.60
51855;DHT22;37895;53.240;6.572;2023-04-06T10:57:29;12.20;50.10
51855;DHT22;37895;53.240;6.572;2023-04-06T10:59:56;12.10;50.40
51855;DHT22;37895;53.240;6.572;2023-04-06T11:02:21;12.10;50.50
51855;DHT22;37895;53.240;6.572;2023-04-06T11:04:55;12.20;49.90
51855;DHT22;37895;53.240;6.572;2023-04-06T11:07:25;12.20;50.00
51855;DHT22;37895;53.240;6.572;2023-04-06T11:09:52;12.20;49.60
51855;DHT22;37895;53.240;6.572;2023-04-06T11:12:36;12.30;49.10
51855;DHT22;37895;53.240;6.572;2023-04-06T11:15:03;12.20;49.80
51855;DHT22;37895;53.240;6.572;2023-04-06T11:17:36;12.30;49.60
51855;DHT22;37895;53.240;6.572;2023-04-06T11:20:03;12.40;49.20
51855;DHT22;37895;53.240;6.572;2023-04-06T11:22:31;12.40;48.70
51855;DHT22;37895;53.240;6.572;2023-04-06T11:25:07;12.50;47.70
51855;DHT22;37895;53.240;6.572;2023-04-06T11:27:34;12.50;46.70
51855;DHT22;37895;53.240;6.572;2023-04-06T11:30:01;12.50;46.50
51855;DHT22;37895;53.240;6.572;2023-04-06T11:32:27;12.50;46.30
51855;DHT22;37895;53.240;6.572;2023-04-06T11:34:53;12.40;47.20
51855;DHT22;37895;53.240;6.572;2023-04-06T11:37:18;12.60;45.80
51855;DHT22;37895;53.240;6.572;2023-04-06T11:39:52;12.70;46.20
51855;DHT22;37895;53.240;6.572;2023-04-06T11:42:25;12.80;45.30
51855;DHT22;37895;53.240;6.572;2023-04-06T11:44:54;12.70;45.80
51855;DHT22;37895;53.240;6.572;2023-04-06T11:47:30;12.90;45.30
51855;DHT22;37895;53.240;6.572;2023-04-06T11:50:05;12.90;46.50
51855;DHT22;37895;53.240;6.572;2023-04-06T11:52:31;13.10;45.50
51855;DHT22;37895;53.240;6.572;2023-04-06T11:54:57;13.40;44.20
51855;DHT22;37895;53.240;6.572;2023-04-06T11:57:23;13.40;44.60
51855;DHT22;37895;53.240;6.572;2023-04-06T11:59:52;13.50;44.70
51855;DHT22;37895;53.240;6.572;2023-04-06T12:02:19;13.60;44.50
51855;DHT22;37895;53.240;6.572;2023-04-06T12:04:46;13.60;44.70
51855;DHT22;37895;53.240;6.572;2023-04-06T12:07:11;13.60;43.30
51855;DHT22;37895;53.240;6.572;2023-04-06T12:09:37;13.70;43.80
51855;DHT22;37895;53.240;6.572;2023-04-06T12:12:04;13.70;43.00
51855;DHT22;37895;53.240;6.572;2023-04-06T12:14:29;13.70;43.00
51855;DHT22;37895;53.240;6.572;2023-04-06T12:16:58;13.70;43.50
51855;DHT22;37895;53.240;6.572;2023-04-06T12:19:24;13.70;44.10
51855;DHT22;37895;53.240;6.572;2023-04-06T12:21:52;13.70;43.90
51855;DHT22;37895;53.240;6.572;2023-04-06T12:24:18;13.70;43.80
51855;DHT22;37895;53.240;6.572;2023-04-06T12:26:44;13.90;42.10
51855;DHT22;37895;53.240;6.572;2023-04-06T12:29:10;13.90;42.90
51855;DHT22;37895;53.240;6.572;2023-04-06T12:31:37;13.80;43.10
51855;DHT22;37895;53.240;6.572;2023-04-06T12:34:04;13.80;42.10
51855;DHT22;37895;53.240;6.572;2023-04-06T12:36:30;13.70;42.50
51855;DHT22;37895;53.240;6.572;2023-04-06T12:38:56;13.60;43.70
51855;DHT22;37895;53.240;6.572;2023-04-06T12:41:22;13.70;43.60
51855;DHT22;37895;53.240;6.572;2023-04-06T12:43:48;13.70;43.80
51855;DHT22;37895;53.240;6.572;2023-04-06T12:46:16;13.70;43.20
51855;DHT22;37895;53.240;6.572;2023-04-06T12:48:42;13.60;44.10
51855;DHT22;37895;53.240;6.572;2023-04-06T12:51:08;13.60;43.00
51855;DHT22;37895;53.240;6.572;2023-04-06T12:53:34;13.60;41.90
51855;DHT22;37895;53.240;6.572;2023-04-06T12:56:01;13.60;42.00
51855;DHT22;37895;53.240;6.572;2023-04-06T12:58:27;13.50;42.70
51855;DHT22;37895;53.240;6.572;2023-04-06T13:00:54;13.40;42.80
51855;DHT22;37895;53.240;6.572;2023-04-06T13:03:21;13.60;42.80
51855;DHT22;37895;53.240;6.572;2023-04-06T13:05:49;13.80;41.70
51855;DHT22;37895;53.240;6.572;2023-04-06T13:08:16;13.80;41.90
51855;DHT22;37895;53.240;6.572;2023-04-06T13:10:48;13.80;42.20
51855;DHT22;37895;53.240;6.572;2023-04-06T13:13:15;13.80;42.40
51855;DHT22;37895;53.240;6.572;2023-04-06T13:15:41;13.80;42.10
51855;DHT22;37895;53.240;6.572;2023-04-06T13:18:07;13.80;42.20
51855;DHT22;37895;53.240;6.572;2023-04-06T13:20:33;13.80;42.50
51855;DHT22;37895;53.240;6.572;2023-04-06T13:22:59;13.90;41.50
51855;DHT22;37895;53.240;6.572;2023-04-06T13:25:24;13.80;42.30
51855;DHT22;37895;53.240;6.572;2023-04-06T13:27:50;13.90;42.00
51855;DHT22;37895;53.240;6.572;2023-04-06T13:30:16;14.00;41.80
51855;DHT22;37895;53.240;6.572;2023-04-06T13:32:42;13.80;42.40
51855;DHT22;37895;53.240;6.572;2023-04-06T13:35:08;13.80;42.90
51855;DHT22;37895;53.240;6.572;2023-04-06T13:37:34;13.90;41.90
51855;DHT22;37895;53.240;6.572;2023-04-06T13:39:59;13.80;42.60
51855;DHT22;37895;53.240;6.572;2023-04-06T13:42:27;13.80;42.10
51855;DHT22;37895;53.240;6.572;2023-04-06T13:44:53;13.70;43.00
51855;DHT22;37895;53.240;6.572;2023-04-06T13:47:19;13.80;43.20
51855;DHT22;37895;53.240;6.572;2023-04-06T13:49:46;13.90;42.60
51855;DHT22;37895;53.240;6.572;2023-04-06T13:52:12;13.80;43.20
51855;DHT22;37895;53.240;6.572;2023-04-06T13:54:38;13.80;43.40
51855;DHT22;37895;53.240;6.572;2023-04-06T13:57:03;13.90;42.80
51855;DHT22;37895;53.240;6.572;2023-04-06T13:59:36;13.80;43.50
51855;DHT22;37895;53.240;6.572;2023-04-06T14:02:03;13.90;43.40
51855;DHT22;37895;53.240;6.572;2023-04-06T14:04:29;13.90;43.30
51855;DHT22;37895;53.240;6.572;2023-04-06T14:06:55;13.90;43.30
51855;DHT22;37895;53.240;6.572;2023-04-06T14:09:21;13.90;43.80
51855;DHT22;37895;53.240;6.572;2023-04-06T14:11:47;13.90;44.10
51855;DHT22;37895;53.240;6.572;2023-04-06T14:14:12;13.90;44.30
51855;DHT22;37895;53.240;6.572;2023-04-06T14:16:38;14.00;43.30
51855;DHT22;37895;53.240;6.572;2023-04-06T14:19:04;13.90;44.50
51855;DHT22;37895;53.240;6.572;2023-04-06T14:21:29;13.90;45.00
51855;DHT22;37895;53.240;6.572;2023-04-06T14:23:55;13.90;45.40
51855;DHT22;37895;53.240;6.572;2023-04-06T14:26:22;13.90;45.80
51855;DHT22;37895;53.240;6.572;2023-04-06T14:28:48;13.90;46.40
51855;DHT22;37895;53.240;6.572;2023-04-06T14:31:14;14.00;46.30
51855;DHT22;37895;53.240;6.572;2023-04-06T14:33:41;14.10;47.00
51855;DHT22;37895;53.240;6.572;2023-04-06T14:36:08;14.10;46.60
51855;DHT22;37895;53.240;6.572;2023-04-06T14:38:34;14.20;46.50
51855;DHT22;37895;53.240;6.572;2023-04-06T14:41:00;14.30;46.80
51855;DHT22;37895;53.240;6.572;2023-04-06T14:43:26;14.40;46.80
51855;DHT22;37895;53.240;6.572;2023-04-06T14:45:52;14.40;46.70
51855;DHT22;37895;53.240;6.572;2023-04-06T14:48:18;14.30;46.80
51855;DHT22;37895;53.240;6.572;2023-04-06T14:50:54;14.30;46.70
51855;DHT22;37895;53.240;6.572;2023-04-06T14:53:21;14.20;47.20
51855;DHT22;37895;53.240;6.572;2023-04-06T14:55:47;14.00;48.00
51855;DHT22;37895;53.240;6.572;2023-04-06T14:58:15;13.90;48.60
51855;DHT22;37895;53.240;6.572;2023-04-06T15:00:41;13.80;48.90
51855;DHT22;37895;53.240;6.572;2023-04-06T15:03:06;13.70;49.60
51855;DHT22;37895;53.240;6.572;2023-04-06T15:05:34;13.60;49.50
51855;DHT22;37895;53.240;6.572;2023-04-06T15:07:59;13.50;50.80
51855;DHT22;37895;53.240;6.572;2023-04-06T15:10:25;13.70;51.00
51855;DHT22;37895;53.240;6.572;2023-04-06T15:12:51;13.60;50.10
51855;DHT22;37895;53.240;6.572;2023-04-06T15:15:17;13.40;50.90
51855;DHT22;37895;53.240;6.572;2023-04-06T15:17:42;13.30;51.40
51855;DHT22;37895;53.240;6.572;2023-04-06T15:20:08;13.30;52.20
51855;DHT22;37895;53.240;6.572;2023-04-06T15:22:35;13.30;52.10
51855;DHT22;37895;53.240;6.572;2023-04-06T15:25:00;13.40;52.20
51855;DHT22;37895;53.240;6.572;2023-04-06T15:27:26;13.20;52.40
51855;DHT22;37895;53.240;6.572;2023-04-06T15:29:52;13.00;53.70
51855;DHT22;37895;53.240;6.572;2023-04-06T15:32:17;12.90;53.90
51855;DHT22;37895;53.240;6.572;2023-04-06T15:34:43;12.80;54.70
51855;DHT22;37895;53.240;6.572;2023-04-06T15:37:09;12.70;54.70